Map

Track Data

SID SEASON NUMBER BASIN SUBBASIN NAME ISO_TIME NATURE LAT LON WMO_WIND WMO_PRES WMO_AGENCY TRACK_TYPE DIST2LAND LANDFALL IFLAG USA_AGENCY USA_ATCF_ID USA_LAT USA_LON USA_RECORD USA_STATUS USA_WIND USA_PRES USA_SSHS USA_R34_NE USA_R34_SE USA_R34_SW USA_R34_NW USA_R50_NE USA_R50_SE USA_R50_SW USA_R50_NW USA_R64_NE USA_R64_SE USA_R64_SW USA_R64_NW USA_POCI USA_ROCI USA_RMW USA_EYE TOKYO_LAT TOKYO_LON TOKYO_GRADE TOKYO_WIND TOKYO_PRES TOKYO_R50_DIR TOKYO_R50_LONG TOKYO_R50_SHORT TOKYO_R30_DIR TOKYO_R30_LONG TOKYO_R30_SHORT TOKYO_LAND CMA_LAT CMA_LON CMA_CAT CMA_WIND CMA_PRES HKO_LAT HKO_LON HKO_CAT HKO_WIND HKO_PRES NEWDELHI_LAT NEWDELHI_LON NEWDELHI_GRADE NEWDELHI_WIND NEWDELHI_PRES NEWDELHI_CI NEWDELHI_DP NEWDELHI_POCI REUNION_LAT REUNION_LON REUNION_TYPE REUNION_WIND REUNION_PRES REUNION_TNUM REUNION_CI REUNION_RMW REUNION_R34_NE REUNION_R34_SE REUNION_R34_SW REUNION_R34_NW REUNION_R50_NE REUNION_R50_SE REUNION_R50_SW REUNION_R50_NW REUNION_R64_NE REUNION_R64_SE REUNION_R64_SW REUNION_R64_NW BOM_LAT BOM_LON BOM_TYPE BOM_WIND BOM_PRES BOM_TNUM BOM_CI BOM_RMW BOM_R34_NE BOM_R34_SE BOM_R34_SW BOM_R34_NW BOM_R50_NE BOM_R50_SE BOM_R50_SW BOM_R50_NW BOM_R64_NE BOM_R64_SE BOM_R64_SW BOM_R64_NW BOM_ROCI BOM_POCI BOM_EYE BOM_POS_METHOD BOM_PRES_METHOD NADI_LAT NADI_LON NADI_CAT NADI_WIND NADI_PRES WELLINGTON_LAT WELLINGTON_LON WELLINGTON_WIND WELLINGTON_PRES DS824_LAT DS824_LON DS824_STAGE DS824_WIND DS824_PRES TD9636_LAT TD9636_LON TD9636_STAGE TD9636_WIND TD9636_PRES TD9635_LAT TD9635_LON TD9635_WIND TD9635_PRES TD9635_ROCI NEUMANN_LAT NEUMANN_LON NEUMANN_CLASS NEUMANN_WIND NEUMANN_PRES MLC_LAT MLC_LON MLC_CLASS MLC_WIND MLC_PRES USA_GUST BOM_GUST BOM_GUST_PER REUNION_GUST REUNION_GUST_PER USA_SEAHGT USA_SEARAD_NE USA_SEARAD_SE USA_SEARAD_SW USA_SEARAD_NW STORM_SPEED STORM_DIR
1880043S13088 1880 2 SI MM NOT_NAMED 1880-02-12 00:00:00 TS -12.7000 87.7000 main 1744 1744 _________O____ -1 -12.7000 87.7000 TC 1 223
1880043S13088 1880 2 SI MM NOT_NAMED 1880-02-12 03:00:00 TS -12.7500 87.6525 main 1744 1752 _________P____ -1 -12.7500 87.6525 TC 1 223
1880043S13088 1880 2 SI MM NOT_NAMED 1880-02-12 06:00:00 TS -12.8000 87.6000 main 1760 1760 _________O____ -1 -12.8000 87.6000 TC 1 225
1880043S13088 1880 2 SI MM NOT_NAMED 1880-02-12 09:00:00 TS -12.8500 87.5425 main 1767 1775 _________P____ -1 -12.8500 87.5425 TC 1 223
1880043S13088 1880 2 SI MM NOT_NAMED 1880-02-12 12:00:00 TS -12.9000 87.5000 main 1775 1775 _________O____ -1 -12.9000 87.5000 TC 1 197
1880043S13088 1880 2 SI MM NOT_NAMED 1880-02-12 15:00:00 TS -12.9500 87.5000 main 1775 1775 _________P____ -1 -12.9500 87.5000 TC 1 0
1880043S13088 1880 2 SI MM NOT_NAMED 1880-02-12 18:00:00 TS -13.0000 87.5000 main 1783 1783 _________O____ -1 -13.0000 87.5000 TC 1 197
1880043S13088 1880 2 SI MM NOT_NAMED 1880-02-12 21:00:00 TS -13.0500 87.4575 main 1783 1791 _________P____ -1 -13.0500 87.4575 TC 1 223
1880043S13088 1880 2 SI MM NOT_NAMED 1880-02-13 00:00:00 TS -13.1000 87.4000 main 1798 1798 _________O____ -1 -13.1000 87.4000 TC 1 223
1880043S13088 1880 2 SI MM NOT_NAMED 1880-02-13 03:00:00 TS -13.1500 87.3575 main 1798 1798 _________P____ -1 -13.1500 87.3575 TC 1 223
1880043S13088 1880 2 SI MM NOT_NAMED 1880-02-13 06:00:00 TS -13.2000 87.3000 main 1814 1814 _________O____ -1 -13.2000 87.3000 TC 2 235
1880043S13088 1880 2 SI MM NOT_NAMED 1880-02-13 09:00:00 TS -13.2575 87.2000 main 1830 1830 _________P____ -1 -13.2575 87.2000 TC 2 243
1880043S13088 1880 2 SI MM NOT_NAMED 1880-02-13 12:00:00 TS -13.3000 87.1000 main 1837 1837 _________O____ -1 -13.3000 87.1000 TC 2 254
1880043S13088 1880 2 SI MM NOT_NAMED 1880-02-13 15:00:00 TS -13.3000 87.0425 main 1845 1845 _________P____ -1 -13.3000 87.0425 TC 1 270
1880043S13088 1880 2 SI MM NOT_NAMED 1880-02-13 18:00:00 TS -13.3000 87.0000 main 1845 1845 _________O____ -1 -13.3000 87.0000 TC 1 244
1880043S13088 1880 2 SI MM NOT_NAMED 1880-02-13 21:00:00 TS -13.3425 86.9500 main 1845 1845 _________P____ -1 -13.3425 86.9500 TC 1 223
1880043S13088 1880 2 SI MM NOT_NAMED 1880-02-14 00:00:00 TS -13.4000 86.9000 main 1861 1861 _________O____ -1 -13.4000 86.9000 TC 1 221
1880043S13088 1880 2 SI MM NOT_NAMED 1880-02-14 03:00:00 TS -13.4500 86.8500 main 1861 1869 _________P____ -1 -13.4500 86.8500 TC 1 223
1880043S13088 1880 2 SI MM NOT_NAMED 1880-02-14 06:00:00 TS -13.5000 86.8000 main 1876 1876 _________O____ -1 -13.5000 86.8000 TC 1 223
1880043S13088 1880 2 SI MM NOT_NAMED 1880-02-14 09:00:00 TS -13.5500 86.7500 main 1876 1876 _________P____ -1 -13.5500 86.7500 TC 1 223
1880043S13088 1880 2 SI MM NOT_NAMED 1880-02-14 12:00:00 TS -13.6000 86.7000 main 1892 1892 _________O____ -1 -13.6000 86.7000 TC 1 225
1880043S13088 1880 2 SI MM NOT_NAMED 1880-02-14 15:00:00 TS -13.6500 86.6425 main 1900 1907 _________P____ -1 -13.6500 86.6425 TC 1 223
1880043S13088 1880 2 SI MM NOT_NAMED 1880-02-14 18:00:00 TS -13.7000 86.6000 main 1907 1907 _________O____ -1 -13.7000 86.6000 TC 1 197
1880043S13088 1880 2 SI MM NOT_NAMED 1880-02-14 21:00:00 TS -13.7500 86.6075 main 1907 1907 _________P____ -1 -13.7500 86.6075 TC 1 0
1880043S13088 1880 2 SI MM NOT_NAMED 1880-02-15 00:00:00 TS -13.8000 86.6000 main 1915 1915 _________O____ -1 -13.8000 86.6000 TC 1 225
1880043S13088 1880 2 SI MM NOT_NAMED 1880-02-15 03:00:00 TS -13.8425 86.5075 main 1923 1923 _________P____ -1 -13.8425 86.5075 TC 2 243
1880043S13088 1880 2 SI MM NOT_NAMED 1880-02-15 06:00:00 TS -13.9000 86.4000 main 1939 1939 _________O____ -1 -13.9000 86.4000 TC 2 225
1880043S13088 1880 2 SI MM NOT_NAMED 1880-02-15 09:00:00 TS -14.0000 86.3425 main 1954 1954 _________P____ -1 -14.0000 86.3425 TC 2 207
1880043S13088 1880 2 SI MM NOT_NAMED 1880-02-15 12:00:00 TS -14.1000 86.3000 main 1962 1962 _________O____ -1 -14.1000 86.3000 TC 2 212
1880043S13088 1880 2 SI MM NOT_NAMED 1880-02-15 15:00:00 TS -14.1575 86.2425 main 1977 1977 _________P____ -1 -14.1575 86.2425 TC 1 223
1880043S13088 1880 2 SI MM NOT_NAMED 1880-02-15 18:00:00 TS -14.2000 86.2000 main 1977 1977 _________O____ -1 -14.2000 86.2000 TC 1 209
1880043S13088 1880 2 SI MM NOT_NAMED 1880-02-15 21:00:00 TS -14.2425 86.2000 main 1977 1977 _________P____ -1 -14.2425 86.2000 TC 1 0
1880043S13088 1880 2 SI MM NOT_NAMED 1880-02-16 00:00:00 TS -14.3000 86.2000 main 1985 1985 _________O____ -1 -14.3000 86.2000 TC 2 192
1880043S13088 1880 2 SI MM NOT_NAMED 1880-02-16 03:00:00 TS -14.3925 86.1575 main 1993 1993 _________P____ -1 -14.3925 86.1575 TC 2 207
1880043S13088 1880 2 SI MM NOT_NAMED 1880-02-16 06:00:00 TS -14.5000 86.1000 main 2008 2008 _________O____ -1 -14.5000 86.1000 TC 2 208
1880043S13088 1880 2 SI MM NOT_NAMED 1880-02-16 09:00:00 TS -14.6000 86.0500 main 2016 2024 _________P____ -1 -14.6000 86.0500 TC 2 207
1880043S13088 1880 2 SI MM NOT_NAMED 1880-02-16 12:00:00 TS -14.7000 86.0000 main 2032 2032 _________O____ -1 -14.7000 86.0000 TC 2 204
1880043S13088 1880 2 SI MM NOT_NAMED 1880-02-16 15:00:00 TS -14.8075 85.9575 main 2040 2040 _________P____ -1 -14.8075 85.9575 TC 2 207
1880043S13088 1880 2 SI MM NOT_NAMED 1880-02-16 18:00:00 TS -14.9000 85.9000 main 2055 2055 _________O____ -1 -14.9000 85.9000 TC 2 223
1880043S13088 1880 2 SI MM NOT_NAMED 1880-02-16 21:00:00 TS -14.9600 85.8100 main 2071 2071 _________P____ -1 -14.9600 85.8100 TC 2 243
1880043S13088 1880 2 SI MM NOT_NAMED 1880-02-17 00:00:00 TS -15.0000 85.7000 main 2078 _________O____ -1 -15.0000 85.7000 TC 2 249

About IBTrACS Database

This database is a web-friendly format of International Best Track Archive for Climate Stewardship (IBTrACS), a global best track data archive curated by NOAA dating back to 1842.

Updated: 2021-10-27